Time;durP1;ratioP1;P1;durP2;ratioP2;P2;SDS_P1;SDS_P2;PMS_P1;PMS_P2;Temp;Humidity;BMP_temperature;BMP_pressure;BME280_temperature;BME280_humidity;BME280_pressure;Samples;Min_cycle;Max_cycle;Signal;HPM_P1;HPM_P2
2022/09/18 00:00:07;;;;;;;;;;;12.70;99.90;;;;;;5078237;28;20003;-57
2022/09/18 00:02:37;;;;;;;;;;;12.70;99.90;;;;;;5078286;28;19912;-57
2022/09/18 00:05:04;;;;;;;;;;;12.80;99.90;;;;;;5094362;28;20306;-57
2022/09/18 00:07:29;;;;;;;;;;;12.80;99.90;;;;;;5078176;28;19995;-58
2022/09/18 00:09:56;;;;;;;;;;;12.90;99.90;;;;;;5078018;28;20007;-57
2022/09/18 00:12:21;;;;;;;;;;;12.90;99.90;;;;;;5078079;28;20292;-58
2022/09/18 00:14:51;;;;;;;;;;;12.90;99.90;;;;;;5077370;28;20266;-57
2022/09/18 00:17:16;;;;;;;;;;;12.90;99.90;;;;;;5078003;28;19926;-58
2022/09/18 00:19:42;;;;;;;;;;;12.80;99.90;;;;;;5077907;28;19908;-58
2022/09/18 00:22:08;;;;;;;;;;;12.90;99.90;;;;;;5078143;28;19930;-58
2022/09/18 00:24:34;;;;;;;;;;;12.60;99.90;;;;;;5077852;28;19913;-58
2022/09/18 00:26:59;;;;;;;;;;;12.40;99.90;;;;;;5077794;28;19912;-58
2022/09/18 00:29:25;;;;;;;;;;;12.40;99.90;;;;;;5077048;28;20244;-59
2022/09/18 00:31:51;;;;;;;;;;;12.30;99.90;;;;;;5077738;28;19924;-58
2022/09/18 00:34:21;;;;;;;;;;;12.20;99.90;;;;;;5077711;28;19912;-59
2022/09/18 00:36:47;;;;;;;;;;;12.20;99.90;;;;;;5077014;28;19913;-58
2022/09/18 00:39:13;;;;;;;;;;;12.10;99.90;;;;;;5077627;28;19971;-57
2022/09/18 00:41:44;;;;;;;;;;;12.10;99.90;;;;;;5077615;28;19912;-57
2022/09/18 00:44:29;;;;;;;;;;;12.20;99.90;;;;;;5076857;28;19973;-56
2022/09/18 00:46:56;;;;;;;;;;;12.30;99.90;;;;;;5077602;28;20255;-58
2022/09/18 00:49:24;;;;;;;;;;;12.40;99.90;;;;;;5077552;28;19937;-58
2022/09/18 00:51:51;;;;;;;;;;;12.40;99.90;;;;;;5077600;28;19908;-58
2022/09/18 00:54:20;;;;;;;;;;;12.40;99.90;;;;;;5077485;28;19919;-58
2022/09/18 00:56:47;;;;;;;;;;;12.40;99.90;;;;;;5077396;28;19924;-58
2022/09/18 00:59:14;;;;;;;;;;;12.40;99.90;;;;;;5093481;28;19951;-58
2022/09/18 01:01:40;;;;;;;;;;;12.30;99.90;;;;;;5077409;28;20185;-58
2022/09/18 01:04:11;;;;;;;;;;;12.30;99.90;;;;;;5077335;28;19916;-57
2022/09/18 01:06:44;;;;;;;;;;;12.20;99.90;;;;;;5077328;28;19912;-59
2022/09/18 01:09:28;;;;;;;;;;;12.30;99.90;;;;;;5076575;28;20322;-57
2022/09/18 01:11:57;;;;;;;;;;;12.30;99.90;;;;;;5076545;28;19970;-57
2022/09/18 01:14:38;;;;;;;;;;;12.30;99.90;;;;;;5077192;28;19904;-57
2022/09/18 01:17:24;;;;;;;;;;;12.40;99.90;;;;;;5076599;28;19978;-57
2022/09/18 01:20:07;;;;;;;;;;;12.50;99.90;;;;;;5077192;28;19920;-57
2022/09/18 01:22:40;;;;;;;;;;;12.50;99.90;;;;;;5076242;28;19916;-57
2022/09/18 01:25:13;;;;;;;;;;;12.60;99.90;;;;;;5077098;28;20294;-56
2022/09/18 01:28:14;;;;;;;;;;;12.40;99.90;;;;;;5081225;28;19908;-57
2022/09/18 01:30:41;;;;;;;;;;;12.20;99.90;;;;;;5020101;28;19909;-57
2022/09/18 01:33:12;;;;;;;;;;;12.20;99.90;;;;;;5064756;28;20191;-57
2022/09/18 01:35:42;;;;;;;;;;;12.20;99.90;;;;;;5080281;28;20241;-57
2022/09/18 01:38:12;;;;;;;;;;;12.30;99.90;;;;;;5080617;28;19908;-57
2022/09/18 01:40:47;;;;;;;;;;;12.30;99.90;;;;;;5080456;28;19978;-57
2022/09/18 01:43:14;;;;;;;;;;;12.40;99.90;;;;;;5080140;28;19908;-57
2022/09/18 01:45:42;;;;;;;;;;;12.40;99.90;;;;;;5080140;28;19909;-57
2022/09/18 01:48:13;;;;;;;;;;;12.30;99.90;;;;;;5080109;28;19908;-57
2022/09/18 01:50:42;;;;;;;;;;;12.20;99.90;;;;;;5080099;28;19915;-58
2022/09/18 01:53:12;;;;;;;;;;;12.00;99.90;;;;;;5079911;28;19908;-57
2022/09/18 01:55:39;;;;;;;;;;;11.90;99.90;;;;;;5079816;28;19974;-57
2022/09/18 01:58:10;;;;;;;;;;;11.90;99.90;;;;;;5063251;28;19908;-57
2022/09/18 02:00:37;;;;;;;;;;;11.90;99.90;;;;;;5096812;28;19912;-58
2022/09/18 02:03:08;;;;;;;;;;;11.90;99.90;;;;;;5079838;28;19919;-57
2022/09/18 02:05:53;;;;;;;;;;;12.00;99.90;;;;;;5079694;28;20298;-57
2022/09/18 02:08:22;;;;;;;;;;;12.00;99.90;;;;;;5079728;28;20000;-57
2022/09/18 02:10:53;;;;;;;;;;;12.00;99.90;;;;;;5079690;28;19908;-57
2022/09/18 02:13:23;;;;;;;;;;;12.00;99.90;;;;;;5079617;28;20007;-57
2022/09/18 02:15:51;;;;;;;;;;;11.90;99.90;;;;;;5079599;28;20195;-57
2022/09/18 02:18:23;;;;;;;;;;;11.90;99.90;;;;;;5079542;28;19942;-57
2022/09/18 02:20:49;;;;;;;;;;;12.00;99.90;;;;;;5096791;28;19990;-57
2022/09/18 02:23:15;;;;;;;;;;;12.00;99.90;;;;;;5080115;28;19926;-57
2022/09/18 02:25:49;;;;;;;;;;;12.00;99.90;;;;;;5080148;28;19999;-57
2022/09/18 02:28:16;;;;;;;;;;;12.00;99.90;;;;;;5080187;28;19915;-57
2022/09/18 02:30:46;;;;;;;;;;;12.10;99.90;;;;;;5079184;28;20272;-58
2022/09/18 02:33:22;;;;;;;;;;;12.00;99.90;;;;;;5080039;28;19991;-58
2022/09/18 02:35:53;;;;;;;;;;;11.90;99.90;;;;;;5080000;28;20202;-57
2022/09/18 02:38:27;;;;;;;;;;;11.70;99.90;;;;;;5079300;28;20153;-57
2022/09/18 02:40:58;;;;;;;;;;;11.70;99.90;;;;;;5079211;28;19909;-57
2022/09/18 02:43:36;;;;;;;;;;;11.70;99.90;;;;;;5079069;28;20185;-59
2022/09/18 02:46:10;;;;;;;;;;;11.70;99.90;;;;;;5079115;28;20309;-57
2022/09/18 02:48:46;;;;;;;;;;;11.60;99.90;;;;;;5078945;28;19944;-58
2022/09/18 02:51:26;;;;;;;;;;;11.60;99.90;;;;;;5095882;28;20350;-57
2022/09/18 02:54:06;;;;;;;;;;;11.70;99.90;;;;;;5078822;28;19908;-57
2022/09/18 02:56:38;;;;;;;;;;;11.70;99.90;;;;;;5078778;28;19912;-57
2022/09/18 02:59:16;;;;;;;;;;;11.80;99.90;;;;;;5078738;28;19919;-58
2022/09/18 03:01:46;;;;;;;;;;;11.70;99.90;;;;;;5063035;28;19959;-57
2022/09/18 03:04:14;;;;;;;;;;;11.80;99.90;;;;;;5062150;28;19923;-58
2022/09/18 03:07:00;;;;;;;;;;;11.80;99.90;;;;;;5079182;28;19904;-59
2022/09/18 03:09:26;;;;;;;;;;;11.70;99.90;;;;;;5078598;28;20315;-58
2022/09/18 03:11:52;;;;;;;;;;;11.70;99.90;;;;;;5061894;28;19966;-58
2022/09/18 03:14:18;;;;;;;;;;;11.80;99.90;;;;;;5078529;28;20011;-57
2022/09/18 03:16:44;;;;;;;;;;;11.80;99.90;;;;;;5079214;28;20271;-56
2022/09/18 03:19:13;;;;;;;;;;;11.80;99.90;;;;;;5078422;28;19973;-57
2022/09/18 03:21:41;;;;;;;;;;;11.80;99.90;;;;;;5062079;28;19909;-57
2022/09/18 03:24:09;;;;;;;;;;;11.90;99.90;;;;;;5078663;28;20334;-57
2022/09/18 03:26:38;;;;;;;;;;;12.00;99.90;;;;;;5079091;28;19920;-57
2022/09/18 03:29:07;;;;;;;;;;;12.00;99.90;;;;;;5078247;28;19913;-57
2022/09/18 03:31:33;;;;;;;;;;;11.90;99.90;;;;;;5078290;28;19909;-57
2022/09/18 03:34:00;;;;;;;;;;;11.90;99.90;;;;;;5078352;28;19904;-57
2022/09/18 03:36:26;;;;;;;;;;;11.80;99.90;;;;;;5078008;28;20187;-57
2022/09/18 03:38:52;;;;;;;;;;;11.80;99.90;;;;;;5078464;28;19908;-58
2022/09/18 03:41:18;;;;;;;;;;;11.90;99.90;;;;;;5078012;28;19923;-57
2022/09/18 03:43:44;;;;;;;;;;;11.80;99.90;;;;;;5077831;28;20184;-58
2022/09/18 03:46:11;;;;;;;;;;;11.80;99.90;;;;;;5094661;28;19917;-58
2022/09/18 03:48:36;;;;;;;;;;;11.70;99.90;;;;;;5077708;28;20200;-57
2022/09/18 03:51:02;;;;;;;;;;;11.70;99.90;;;;;;5077471;28;19923;-57
2022/09/18 03:53:29;;;;;;;;;;;11.60;99.90;;;;;;5077950;28;20272;-58
2022/09/18 03:56:16;;;;;;;;;;;11.70;99.90;;;;;;5077603;28;20287;-58
2022/09/18 03:59:05;;;;;;;;;;;11.70;99.90;;;;;;5073140;28;19958;-57
2022/09/18 04:01:56;;;;;;;;;;;11.60;99.90;;;;;;5074497;28;20005;-58
2022/09/18 04:04:25;;;;;;;;;;;11.60;99.90;;;;;;5077574;28;20012;-58
2022/09/18 04:07:10;;;;;;;;;;;11.50;99.90;;;;;;5078698;28;19931;-58
2022/09/18 04:09:54;;;;;;;;;;;11.50;99.90;;;;;;5077715;28;19919;-58
2022/09/18 04:12:22;;;;;;;;;;;11.50;99.90;;;;;;5078223;28;19920;-57
2022/09/18 04:15:02;;;;;;;;;;;11.40;99.90;;;;;;5077284;28;19927;-57
2022/09/18 04:17:28;;;;;;;;;;;11.50;99.90;;;;;;5078658;28;19908;-58
2022/09/18 04:19:54;;;;;;;;;;;11.50;99.90;;;;;;5077153;28;19971;-57
2022/09/18 04:22:20;;;;;;;;;;;11.50;99.90;;;;;;5077125;28;19956;-57
2022/09/18 04:24:49;;;;;;;;;;;11.50;99.90;;;;;;5078150;28;19923;-56
2022/09/18 04:27:15;;;;;;;;;;;11.50;99.90;;;;;;5077120;28;19912;-57
2022/09/18 04:29:40;;;;;;;;;;;11.60;99.90;;;;;;5077015;28;19923;-57
2022/09/18 04:32:08;;;;;;;;;;;11.60;99.90;;;;;;5077216;28;20008;-55
2022/09/18 04:34:34;;;;;;;;;;;11.60;99.90;;;;;;5076791;28;19970;-57
2022/09/18 04:37:01;;;;;;;;;;;11.70;99.90;;;;;;5077753;28;20335;-58
2022/09/18 04:39:27;;;;;;;;;;;11.70;99.90;;;;;;5093701;28;19913;-57
2022/09/18 04:41:55;;;;;;;;;;;11.70;99.90;;;;;;5076855;28;19916;-57
2022/09/18 04:44:22;;;;;;;;;;;11.80;99.90;;;;;;5077026;28;19921;-57
2022/09/18 04:46:50;;;;;;;;;;;11.80;99.90;;;;;;5093636;28;19908;-58
2022/09/18 04:49:15;;;;;;;;;;;11.90;99.90;;;;;;5077711;28;19912;-57
2022/09/18 04:51:42;;;;;;;;;;;11.90;99.90;;;;;;5077029;28;20284;-57
2022/09/18 04:54:08;;;;;;;;;;;11.90;99.90;;;;;;5077321;28;19909;-58
2022/09/18 04:56:36;;;;;;;;;;;12.00;99.90;;;;;;5076509;28;20208;-58
2022/09/18 04:59:02;;;;;;;;;;;12.00;99.90;;;;;;5076358;28;20298;-58
2022/09/18 05:01:28;;;;;;;;;;;12.00;99.90;;;;;;5075957;28;19909;-57
2022/09/18 05:03:53;;;;;;;;;;;12.10;99.90;;;;;;5077014;28;19943;-58
2022/09/18 05:06:26;;;;;;;;;;;12.10;99.90;;;;;;5093421;28;19921;-58
2022/09/18 05:08:52;;;;;;;;;;;12.20;99.90;;;;;;5077053;28;19919;-57
2022/09/18 05:11:19;;;;;;;;;;;12.20;99.90;;;;;;5076302;28;20018;-58
2022/09/18 05:13:48;;;;;;;;;;;12.40;99.90;;;;;;5076235;28;19952;-58
2022/09/18 05:16:15;;;;;;;;;;;12.30;99.90;;;;;;5076130;28;19974;-57
2022/09/18 05:18:45;;;;;;;;;;;12.20;99.90;;;;;;5060365;28;19916;-58
2022/09/18 05:21:11;;;;;;;;;;;12.30;99.90;;;;;;5077040;28;20192;-58
2022/09/18 05:23:38;;;;;;;;;;;12.20;99.90;;;;;;5076123;28;20015;-58
2022/09/18 05:26:05;;;;;;;;;;;12.00;99.90;;;;;;5076343;28;19924;-58
2022/09/18 05:28:31;;;;;;;;;;;11.90;99.90;;;;;;5076157;28;19923;-58
2022/09/18 05:30:59;;;;;;;;;;;11.90;99.90;;;;;;5076169;28;20250;-58
2022/09/18 05:33:27;;;;;;;;;;;11.80;99.90;;;;;;5092882;28;19923;-57
2022/09/18 05:35:55;;;;;;;;;;;11.80;99.90;;;;;;5076714;28;19912;-58
2022/09/18 05:38:21;;;;;;;;;;;11.90;99.90;;;;;;5076186;28;20275;-58
2022/09/18 05:40:50;;;;;;;;;;;11.90;99.90;;;;;;5092743;28;19912;-58
2022/09/18 05:43:16;;;;;;;;;;;11.80;99.90;;;;;;5076717;28;19983;-58
2022/09/18 05:45:42;;;;;;;;;;;11.90;99.90;;;;;;5076634;28;19908;-58
2022/09/18 05:48:30;;;;;;;;;;;11.80;99.90;;;;;;5076840;28;19942;-58
2022/09/18 05:50:57;;;;;;;;;;;11.70;99.90;;;;;;5059353;28;19940;-58
2022/09/18 05:53:25;;;;;;;;;;;11.60;99.90;;;;;;5075502;28;19913;-58
2022/09/18 05:56:10;;;;;;;;;;;11.70;99.90;;;;;;5076399;28;19912;-58
2022/09/18 05:58:35;;;;;;;;;;;11.80;99.90;;;;;;5075760;28;20231;-58
2022/09/18 06:01:03;;;;;;;;;;;11.70;99.90;;;;;;5075871;28;20005;-57
2022/09/18 06:03:50;;;;;;;;;;;11.60;99.90;;;;;;5076136;28;19916;-58
2022/09/18 06:06:17;;;;;;;;;;;11.50;99.90;;;;;;5075812;28;20204;-58
2022/09/18 06:08:43;;;;;;;;;;;11.40;99.90;;;;;;5075755;28;19913;-58
2022/09/18 06:11:09;;;;;;;;;;;11.40;99.90;;;;;;5075788;28;19965;-58
2022/09/18 06:13:34;;;;;;;;;;;11.40;99.90;;;;;;5077710;28;19913;-58
2022/09/18 06:16:00;;;;;;;;;;;11.60;99.90;;;;;;5062669;28;19924;-57
2022/09/18 06:18:37;;;;;;;;;;;11.70;99.90;;;;;;5079426;28;20260;-60
2022/09/18 06:21:03;;;;;;;;;;;11.70;99.90;;;;;;5079337;28;19912;-58
2022/09/18 06:23:30;;;;;;;;;;;11.70;99.90;;;;;;5095990;28;20250;-60
2022/09/18 06:26:05;;;;;;;;;;;11.70;99.90;;;;;;5063728;28;19923;-58
2022/09/18 06:28:32;;;;;;;;;;;11.80;99.90;;;;;;5079130;28;19958;-57
2022/09/18 06:31:01;;;;;;;;;;;11.80;99.90;;;;;;5079042;28;19912;-59
2022/09/18 06:33:31;;;;;;;;;;;11.70;99.90;;;;;;5079022;28;19944;-59
2022/09/18 06:35:56;;;;;;;;;;;11.80;99.90;;;;;;5080093;28;19920;-59
2022/09/18 06:38:31;;;;;;;;;;;11.80;99.90;;;;;;5079014;28;19912;-59
2022/09/18 06:40:56;;;;;;;;;;;11.80;99.90;;;;;;5078891;28;19912;-59
2022/09/18 06:43:49;;;;;;;;;;;11.70;99.90;;;;;;5069245;28;19965;-57
2022/09/18 06:46:32;;;;;;;;;;;11.60;99.90;;;;;;5079119;28;19913;-57
2022/09/18 06:49:08;;;;;;;;;;;11.70;99.90;;;;;;5078986;28;19971;-57
2022/09/18 06:51:33;;;;;;;;;;;11.60;99.90;;;;;;5079645;28;20288;-58
2022/09/18 06:54:05;;;;;;;;;;;11.70;99.90;;;;;;5079134;28;20197;-58
2022/09/18 06:56:31;;;;;;;;;;;11.80;99.90;;;;;;5078905;28;19926;-58
2022/09/18 06:58:57;;;;;;;;;;;12.00;99.90;;;;;;5078816;28;20255;-58
2022/09/18 07:01:23;;;;;;;;;;;12.10;99.90;;;;;;5078792;28;20207;-57
2022/09/18 07:03:57;;;;;;;;;;;12.20;99.90;;;;;;5078964;28;19908;-57
2022/09/18 07:06:30;;;;;;;;;;;12.30;99.90;;;;;;5078655;28;19912;-58
2022/09/18 07:08:56;;;;;;;;;;;12.50;99.90;;;;;;5079322;28;19979;-57
2022/09/18 07:11:42;;;;;;;;;;;12.50;99.90;;;;;;5078930;28;19912;-57
2022/09/18 07:14:08;;;;;;;;;;;12.60;99.90;;;;;;5078458;28;19912;-58
2022/09/18 07:16:34;;;;;;;;;;;12.60;99.90;;;;;;5078499;28;19917;-58
2022/09/18 07:19:02;;;;;;;;;;;12.40;99.90;;;;;;5078345;28;19916;-59
2022/09/18 07:21:28;;;;;;;;;;;12.50;99.90;;;;;;5078274;28;20011;-58
2022/09/18 07:23:54;;;;;;;;;;;12.50;99.90;;;;;;5078928;28;19913;-57
2022/09/18 07:26:19;;;;;;;;;;;12.50;99.90;;;;;;5078297;28;19913;-57
2022/09/18 07:28:46;;;;;;;;;;;12.40;99.90;;;;;;5095028;28;20257;-58
2022/09/18 07:31:23;;;;;;;;;;;12.40;99.90;;;;;;5078214;28;20318;-58
2022/09/18 07:33:52;;;;;;;;;;;12.40;99.90;;;;;;5078894;28;19924;-57
2022/09/18 07:36:20;;;;;;;;;;;12.40;99.90;;;;;;5077912;28;20246;-58
2022/09/18 07:38:51;;;;;;;;;;;12.30;99.90;;;;;;5077918;28;19976;-58
2022/09/18 07:41:18;;;;;;;;;;;12.50;99.90;;;;;;5078714;28;19915;-58
2022/09/18 07:43:44;;;;;;;;;;;12.60;99.90;;;;;;5077877;28;19908;-58
2022/09/18 07:46:10;;;;;;;;;;;12.60;99.90;;;;;;5094708;28;19913;-58
2022/09/18 07:48:37;;;;;;;;;;;12.40;99.90;;;;;;5094738;28;19969;-58
2022/09/18 07:51:14;;;;;;;;;;;12.50;99.90;;;;;;5077899;28;20268;-58
2022/09/18 07:53:43;;;;;;;;;;;12.80;99.90;;;;;;5077754;28;19912;-58
2022/09/18 07:56:09;;;;;;;;;;;13.20;99.90;;;;;;5060994;28;19922;-58
2022/09/18 07:58:35;;;;;;;;;;;13.40;99.90;;;;;;5078308;28;19909;-58
2022/09/18 08:01:14;;;;;;;;;;;13.70;99.90;;;;;;5077565;28;19946;-58
2022/09/18 08:03:44;;;;;;;;;;;13.90;99.90;;;;;;5095112;28;20288;-59
2022/09/18 08:06:11;;;;;;;;;;;14.00;99.90;;;;;;5078166;28;19924;-58
2022/09/18 08:08:46;;;;;;;;;;;14.00;99.90;;;;;;5078171;28;20363;-58
2022/09/18 08:11:14;;;;;;;;;;;13.70;99.90;;;;;;5077398;28;19923;-58
2022/09/18 08:13:54;;;;;;;;;;;13.60;99.90;;;;;;5077318;28;19916;-58
2022/09/18 08:16:38;;;;;;;;;;;13.40;99.90;;;;;;5077207;28;20010;-58
2022/09/18 08:19:22;;;;;;;;;;;13.40;99.90;;;;;;5078636;28;20286;-59
2022/09/18 08:21:57;;;;;;;;;;;13.50;99.90;;;;;;5077059;28;19920;-59
2022/09/18 08:24:23;;;;;;;;;;;13.70;99.90;;;;;;5077157;28;20383;-58
2022/09/18 08:26:49;;;;;;;;;;;13.40;99.90;;;;;;5077933;28;19912;-57
2022/09/18 08:29:17;;;;;;;;;;;13.20;99.90;;;;;;5077691;28;19923;-58
2022/09/18 08:31:57;;;;;;;;;;;13.20;99.90;;;;;;5077014;28;19940;-58
2022/09/18 08:34:24;;;;;;;;;;;13.30;99.90;;;;;;5076870;28;19959;-58
2022/09/18 08:36:50;;;;;;;;;;;13.10;99.90;;;;;;5092856;28;19917;-58
2022/09/18 08:39:36;;;;;;;;;;;13.30;99.90;;;;;;5077389;28;19928;-58
2022/09/18 08:42:25;;;;;;;;;;;13.30;99.90;;;;;;5077599;28;19924;-58
2022/09/18 08:44:58;;;;;;;;;;;13.50;99.90;;;;;;5076759;28;19908;-58
2022/09/18 08:47:26;;;;;;;;;;;13.40;99.90;;;;;;5077658;28;19908;-58
2022/09/18 08:49:56;;;;;;;;;;;13.50;99.90;;;;;;5076722;28;19981;-58
2022/09/18 08:52:24;;;;;;;;;;;13.50;99.90;;;;;;5076861;28;19912;-58
2022/09/18 08:55:07;;;;;;;;;;;13.40;99.90;;;;;;5076813;28;19915;-58
2022/09/18 08:57:46;;;;;;;;;;;13.30;99.90;;;;;;5077744;28;19912;-59
2022/09/18 09:00:22;;;;;;;;;;;13.40;99.90;;;;;;5076631;28;19908;-58
2022/09/18 09:03:22;;;;;;;;;;;13.60;99.90;;;;;;5076952;28;19944;-59
2022/09/18 09:06:13;;;;;;;;;;;13.50;99.90;;;;;;5066985;28;19908;-58
2022/09/18 09:08:59;;;;;;;;;;;13.70;99.90;;;;;;5067164;28;19909;-58
2022/09/18 09:11:38;;;;;;;;;;;13.90;99.90;;;;;;5076449;28;19918;-58
2022/09/18 09:14:40;;;;;;;;;;;13.90;99.90;;;;;;5077457;28;19970;-58
2022/09/18 09:17:18;;;;;;;;;;;13.90;99.90;;;;;;4999739;28;19917;-58
2022/09/18 09:19:57;;;;;;;;;;;14.20;99.90;;;;;;5052434;28;20284;-58
2022/09/18 09:22:25;;;;;;;;;;;14.40;99.90;;;;;;5076999;28;19916;-58
2022/09/18 09:25:00;;;;;;;;;;;14.60;99.90;;;;;;5076327;28;20219;-58
2022/09/18 09:27:57;;;;;;;;;;;14.50;99.90;;;;;;5066670;28;19923;-58
2022/09/18 09:30:45;;;;;;;;;;;14.70;99.90;;;;;;5076939;28;19909;-58
2022/09/18 09:33:33;;;;;;;;;;;14.60;99.90;;;;;;5077381;28;19962;-58
2022/09/18 09:36:35;;;;;;;;;;;14.60;99.90;;;;;;5076207;28;19970;-59
2022/09/18 09:39:05;;;;;;;;;;;14.50;99.90;;;;;;5076153;28;19923;-59
2022/09/18 09:42:02;;;;;;;;;;;14.50;99.90;;;;;;5076305;28;19912;-56
2022/09/18 09:44:31;;;;;;;;;;;14.50;99.90;;;;;;5060599;28;20302;-59
2022/09/18 09:47:02;;;;;;;;;;;14.60;99.90;;;;;;5077346;28;19914;-57
2022/09/18 09:49:30;;;;;;;;;;;15.00;99.90;;;;;;5080883;28;19931;-57
2022/09/18 09:52:02;;;;;;;;;;;15.10;99.90;;;;;;5080088;28;19951;-58
2022/09/18 09:54:29;;;;;;;;;;;15.10;99.90;;;;;;5079983;28;19924;-63
2022/09/18 09:57:14;;;;;;;;;;;15.10;99.90;;;;;;5079925;28;20169;-58
2022/09/18 10:00:00;;;;;;;;;;;15.00;99.90;;;;;;5080222;28;20314;-58
2022/09/18 10:02:51;;;;;;;;;;;15.10;99.90;;;;;;5078536;28;20011;-59
2022/09/18 10:05:21;;;;;;;;;;;15.30;99.90;;;;;;5079718;28;19918;-59
2022/09/18 10:07:47;;;;;;;;;;;15.40;99.90;;;;;;5079794;28;20318;-59
2022/09/18 10:10:15;;;;;;;;;;;15.50;99.90;;;;;;5079792;28;20012;-62
2022/09/18 10:12:41;;;;;;;;;;;16.00;99.90;;;;;;5080684;28;20188;-59
2022/09/18 10:15:07;;;;;;;;;;;16.00;99.90;;;;;;5079485;28;19935;-57
2022/09/18 10:17:40;;;;;;;;;;;16.00;99.90;;;;;;5080398;28;19916;-58
2022/09/18 10:20:06;;;;;;;;;;;16.40;99.90;;;;;;5079483;28;20242;-58
2022/09/18 10:22:33;;;;;;;;;;;16.60;99.90;;;;;;5096263;28;19966;-59
2022/09/18 10:25:01;;;;;;;;;;;16.90;99.90;;;;;;5062760;28;19912;-58
2022/09/18 10:27:30;;;;;;;;;;;17.00;99.90;;;;;;5079459;28;19983;-57
2022/09/18 10:29:55;;;;;;;;;;;17.00;99.90;;;;;;5080079;28;19939;-58
2022/09/18 10:32:35;;;;;;;;;;;16.90;99.90;;;;;;5064348;28;19915;-59
2022/09/18 10:35:33;;;;;;;;;;;16.90;99.90;;;;;;5079202;28;19916;-58
2022/09/18 10:37:58;;;;;;;;;;;16.80;99.90;;;;;;5080359;28;19909;-59
2022/09/18 10:40:35;;;;;;;;;;;16.80;99.90;;;;;;5063120;28;19999;-58
2022/09/18 10:43:03;;;;;;;;;;;16.70;99.90;;;;;;5079192;28;19954;-58
2022/09/18 10:45:32;;;;;;;;;;;16.50;99.90;;;;;;5078941;28;19912;-58
2022/09/18 10:48:14;;;;;;;;;;;16.30;99.90;;;;;;5079292;28;19908;-57
2022/09/18 10:50:52;;;;;;;;;;;16.20;99.90;;;;;;5078988;28;19919;-57
2022/09/18 10:53:28;;;;;;;;;;;15.90;99.90;;;;;;5079856;28;20341;-57
2022/09/18 10:56:14;;;;;;;;;;;15.80;99.90;;;;;;5096014;28;19912;-58
2022/09/18 10:58:41;;;;;;;;;;;15.70;99.90;;;;;;5061479;28;19919;-58
2022/09/18 11:01:08;;;;;;;;;;;15.80;99.90;;;;;;5078726;28;19912;-57
2022/09/18 11:03:36;;;;;;;;;;;15.80;99.90;;;;;;5078868;28;19909;-58
2022/09/18 11:06:03;;;;;;;;;;;15.70;99.90;;;;;;5079077;28;19935;-59
2022/09/18 11:08:32;;;;;;;;;;;15.80;99.90;;;;;;5079470;28;19938;-57
2022/09/18 11:11:00;;;;;;;;;;;15.80;99.90;;;;;;5062636;28;19908;-58
2022/09/18 11:13:27;;;;;;;;;;;16.10;99.90;;;;;;5078579;28;20002;-58
2022/09/18 11:16:01;;;;;;;;;;;16.00;99.90;;;;;;5078437;28;19961;-57
2022/09/18 11:18:27;;;;;;;;;;;16.20;99.90;;;;;;5078732;28;19918;-57
2022/09/18 11:20:56;;;;;;;;;;;16.20;99.90;;;;;;5078528;28;19909;-58
2022/09/18 11:23:28;;;;;;;;;;;16.20;99.90;;;;;;5079196;28;19966;-57
2022/09/18 11:26:15;;;;;;;;;;;16.20;99.90;;;;;;5078317;28;19962;-57
2022/09/18 11:28:41;;;;;;;;;;;16.30;99.90;;;;;;5078542;28;19962;-57
2022/09/18 11:31:18;;;;;;;;;;;16.30;99.90;;;;;;5062073;28;19913;-58
2022/09/18 11:33:49;;;;;;;;;;;16.30;99.90;;;;;;5078262;28;19908;-57
2022/09/18 11:36:25;;;;;;;;;;;16.30;99.90;;;;;;5078153;28;19913;-57
2022/09/18 11:38:51;;;;;;;;;;;16.40;99.90;;;;;;5078787;28;19919;-57
2022/09/18 11:41:21;;;;;;;;;;;16.50;99.90;;;;;;5078663;28;20275;-57
2022/09/18 11:43:59;;;;;;;;;;;16.50;99.90;;;;;;5077931;28;19912;-57
2022/09/18 11:46:38;;;;;;;;;;;16.70;99.90;;;;;;5077962;28;19909;-57
2022/09/18 11:49:08;;;;;;;;;;;16.80;99.90;;;;;;5077870;28;19908;-57
2022/09/18 11:51:48;;;;;;;;;;;16.80;99.90;;;;;;5094821;28;19908;-57
2022/09/18 11:54:22;;;;;;;;;;;17.10;99.90;;;;;;5077743;28;19938;-57
2022/09/18 11:56:50;;;;;;;;;;;16.90;99.90;;;;;;5077680;28;19916;-57
2022/09/18 11:59:26;;;;;;;;;;;16.90;99.90;;;;;;5077728;28;19904;-59
2022/09/18 12:02:09;;;;;;;;;;;17.20;99.90;;;;;;5094457;28;19908;-58
2022/09/18 12:04:40;;;;;;;;;;;17.30;99.90;;;;;;5077735;28;20278;-56
2022/09/18 12:07:16;;;;;;;;;;;17.20;99.90;;;;;;5077385;28;20311;-59
2022/09/18 12:10:00;;;;;;;;;;;17.30;99.90;;;;;;5078133;28;19908;-57
2022/09/18 12:12:29;;;;;;;;;;;17.10;99.90;;;;;;5078041;28;19919;-57
2022/09/18 12:14:56;;;;;;;;;;;17.70;99.90;;;;;;5077092;28;19909;-57
2022/09/18 12:17:22;;;;;;;;;;;18.20;99.90;;;;;;5078104;28;19908;-58
2022/09/18 12:19:53;;;;;;;;;;;18.30;99.90;;;;;;5078069;28;19935;-57
2022/09/18 12:22:39;;;;;;;;;;;18.00;99.90;;;;;;5077032;28;19920;-57
2022/09/18 12:25:13;;;;;;;;;;;17.90;99.90;;;;;;5060756;28;19916;-57
2022/09/18 12:28:03;;;;;;;;;;;18.10;99.90;;;;;;5056941;28;19919;-57
2022/09/18 12:30:36;;;;;;;;;;;18.10;99.90;;;;;;5093759;28;19908;-57
2022/09/18 12:33:08;;;;;;;;;;;17.90;99.90;;;;;;5077666;28;19916;-57
2022/09/18 12:35:42;;;;;;;;;;;17.80;99.90;;;;;;5077657;28;19912;-57
2022/09/18 12:38:26;;;;;;;;;;;17.90;99.90;;;;;;5076772;28;20223;-57
2022/09/18 12:40:55;;;;;;;;;;;18.10;99.90;;;;;;5076989;28;19908;-55
2022/09/18 12:43:27;;;;;;;;;;;18.20;99.90;;;;;;5077710;28;19916;-58
2022/09/18 12:45:52;;;;;;;;;;;18.20;99.90;;;;;;5077763;28;19973;-58
2022/09/18 12:48:21;;;;;;;;;;;18.10;99.90;;;;;;5076880;28;19908;-58
2022/09/18 12:51:05;;;;;;;;;;;18.00;99.90;;;;;;5077601;28;19983;-57
2022/09/18 12:53:50;;;;;;;;;;;18.00;99.90;;;;;;5077592;28;20050;-57
2022/09/18 12:56:35;;;;;;;;;;;18.40;99.90;;;;;;5077470;28;19923;-58
2022/09/18 12:59:00;;;;;;;;;;;18.70;99.90;;;;;;5076852;28;20275;-56
2022/09/18 13:01:45;;;;;;;;;;;18.10;99.90;;;;;;5077283;28;19909;-58
2022/09/18 13:04:18;;;;;;;;;;;17.80;99.90;;;;;;5077288;28;19908;-57
2022/09/18 13:07:04;;;;;;;;;;;17.70;99.90;;;;;;5077441;28;19965;-57
2022/09/18 13:09:33;;;;;;;;;;;17.40;99.90;;;;;;5076469;28;20199;-57
2022/09/18 13:12:01;;;;;;;;;;;17.30;99.90;;;;;;5076576;28;19927;-58
2022/09/18 13:14:32;;;;;;;;;;;17.40;99.90;;;;;;5076424;28;19912;-57
2022/09/18 13:17:04;;;;;;;;;;;17.40;99.90;;;;;;5077534;28;19919;-57
2022/09/18 13:19:48;;;;;;;;;;;17.20;99.90;;;;;;5076497;28;19978;-57
2022/09/18 13:22:16;;;;;;;;;;;17.10;99.90;;;;;;5080727;28;19916;-58
2022/09/18 13:24:42;;;;;;;;;;;17.10;99.90;;;;;;5083081;28;19909;-58
2022/09/18 13:27:09;;;;;;;;;;;16.90;99.90;;;;;;5083669;28;19912;-58
2022/09/18 13:29:50;;;;;;;;;;;16.70;99.90;;;;;;5083810;28;19915;-58
2022/09/18 13:32:21;;;;;;;;;;;16.50;99.90;;;;;;5083733;28;19931;-58
2022/09/18 13:34:54;;;;;;;;;;;16.20;99.90;;;;;;5083218;28;20306;-57
2022/09/18 13:37:21;;;;;;;;;;;16.20;99.90;;;;;;5083716;28;20009;-58
2022/09/18 13:39:52;;;;;;;;;;;16.10;99.90;;;;;;5083972;28;20211;-57
2022/09/18 13:42:27;;;;;;;;;;;16.20;99.90;;;;;;5083659;28;20057;-56
2022/09/18 13:44:54;;;;;;;;;;;16.20;99.90;;;;;;5082845;28;19935;-58
2022/09/18 13:47:20;;;;;;;;;;;16.00;99.90;;;;;;5083576;28;20211;-57
2022/09/18 13:49:48;;;;;;;;;;;16.10;99.90;;;;;;5083624;28;19923;-57
2022/09/18 13:52:30;;;;;;;;;;;16.20;99.90;;;;;;5083638;28;19930;-58
2022/09/18 13:55:03;;;;;;;;;;;16.20;99.90;;;;;;5082714;28;19908;-58
2022/09/18 13:57:32;;;;;;;;;;;16.30;99.90;;;;;;5083476;28;19908;-58
2022/09/18 14:00:05;;;;;;;;;;;16.40;99.90;;;;;;5083113;28;20180;-57
2022/09/18 14:02:38;;;;;;;;;;;16.30;99.90;;;;;;5083846;28;19930;-58
2022/09/18 14:05:24;;;;;;;;;;;16.40;99.90;;;;;;5082894;28;19917;-58
2022/09/18 14:07:54;;;;;;;;;;;16.40;99.90;;;;;;5082559;28;20272;-59
2022/09/18 14:10:24;;;;;;;;;;;16.50;99.90;;;;;;5082852;28;19947;-59
2022/09/18 14:13:04;;;;;;;;;;;16.40;99.90;;;;;;5083505;28;20223;-60
2022/09/18 14:15:30;;;;;;;;;;;16.30;99.90;;;;;;5082422;28;19947;-57
2022/09/18 14:18:13;;;;;;;;;;;16.20;99.90;;;;;;5083257;28;19908;-60
2022/09/18 14:20:39;;;;;;;;;;;16.30;99.90;;;;;;5083386;28;19999;-59
2022/09/18 14:23:39;;;;;;;;;;;16.30;99.90;;;;;;5098984;28;19974;-58
2022/09/18 14:26:24;;;;;;;;;;;16.40;99.90;;;;;;5082505;28;19954;-58
2022/09/18 14:28:49;;;;;;;;;;;16.50;99.90;;;;;;5082527;28;19995;-56
2022/09/18 14:31:35;;;;;;;;;;;16.60;99.90;;;;;;5081964;28;20019;-57
2022/09/18 14:34:09;;;;;;;;;;;17.00;99.90;;;;;;5061914;28;19908;-58
2022/09/18 14:36:45;;;;;;;;;;;17.00;99.90;;;;;;5080402;28;20357;-58
2022/09/18 14:39:23;;;;;;;;;;;17.00;99.90;;;;;;5080019;28;20168;-57
2022/09/18 14:41:50;;;;;;;;;;;16.90;99.90;;;;;;5080282;28;20252;-57
2022/09/18 14:44:18;;;;;;;;;;;16.70;99.90;;;;;;5079685;28;20283;-57